メインページ
METAR-TAF:

METAR-TAF

空港 :

メンドーサ, アルゼンチン

緯度: 32-50S, 経度: 068-47W, 海抜: 705m

現時点の気象観測

当レポートは50分前の15:00(UTC)に作成
南東の風 4kt
気温 22°C
湿度 46%
気圧 1020 hPa
視程10km以上
高度4000ftの雲はほとんどない
高度10000ftの千切れ雲あり

METAR: SAME 181500Z 14004KT 9999 FEW040 BKN100 22/10 Q1020

時間: 12:50 (15:50 UTC)

予報

当レポートは4時間50分前の11:00(UTC)に作成
予報は18日の 12時(UTC)から 19日の 12時(UTC)まで有効
南/南東の風 5kt
視程10km以上
高度4000ftの雲は散在している
18日の 15時(UTC)から 18日の 17時(UTC)まで徐々に
北/北東の風 10kt
視程10km以上
高度4000ftの雲はほとんどない
19日の 01時(UTC)から 19日の 03時(UTC)まで徐々に
変向風 3kt
視程10km以上
高度4000ftの雲はほとんどない

TAF: SAME 181100Z 1812/1912 16005KT 9999 SCT040 TX29/1820Z TN17/1910Z BECMG 1815/1817 02010KT 9999 FEW040 BECMG 1901/1903 VRB03KT 9999 FEW040

4,000以上の空港の気象観測と天気予報(METAR報とTAF報)

利用可能な観測所は地図上に黄色い丸と赤い丸で示す。

丸の上にカーソルを重ねると観測所名を参照できる。

次にクリックすると気象観測と天気予報を参照できる。

マップの切り替え:黒色「×」印の緑ボタンをクリックして拡大、「-」印の緑ボタンをクリックして縮小、緑色の三角印をクリックして隣りの地図に切り替え


METAR-TAF: